sensor_id;sensor_type;location;lat;lon;timestamp;temperature;humidity
6293;DHT22;3179;54.350;10.102;2022-07-23T00:00:07;18.80;96.50
6293;DHT22;3179;54.350;10.102;2022-07-23T00:02:34;18.80;96.50
6293;DHT22;3179;54.350;10.102;2022-07-23T00:05:04;18.80;96.50
6293;DHT22;3179;54.350;10.102;2022-07-23T00:07:33;18.90;96.60
6293;DHT22;3179;54.350;10.102;2022-07-23T00:09:59;18.90;96.70
6293;DHT22;3179;54.350;10.102;2022-07-23T00:12:26;18.80;96.60
6293;DHT22;3179;54.350;10.102;2022-07-23T00:14:53;18.80;96.50
6293;DHT22;3179;54.350;10.102;2022-07-23T00:17:20;18.80;96.60
6293;DHT22;3179;54.350;10.102;2022-07-23T00:19:47;18.80;96.50
6293;DHT22;3179;54.350;10.102;2022-07-23T00:22:14;18.80;96.60
6293;DHT22;3179;54.350;10.102;2022-07-23T00:24:42;18.80;96.70
6293;DHT22;3179;54.350;10.102;2022-07-23T00:27:09;18.80;96.70
6293;DHT22;3179;54.350;10.102;2022-07-23T00:29:35;18.80;96.80
6293;DHT22;3179;54.350;10.102;2022-07-23T00:32:03;18.80;96.70
6293;DHT22;3179;54.350;10.102;2022-07-23T00:34:29;18.70;96.70
6293;DHT22;3179;54.350;10.102;2022-07-23T00:36:56;18.70;96.80
6293;DHT22;3179;54.350;10.102;2022-07-23T00:39:23;18.70;96.80
6293;DHT22;3179;54.350;10.102;2022-07-23T00:41:51;18.70;96.80
6293;DHT22;3179;54.350;10.102;2022-07-23T00:44:20;18.70;96.90
6293;DHT22;3179;54.350;10.102;2022-07-23T00:46:48;18.70;96.90
6293;DHT22;3179;54.350;10.102;2022-07-23T00:49:15;18.70;96.90
6293;DHT22;3179;54.350;10.102;2022-07-23T00:51:42;18.70;96.90
6293;DHT22;3179;54.350;10.102;2022-07-23T00:54:09;18.70;96.90
6293;DHT22;3179;54.350;10.102;2022-07-23T00:56:36;18.70;97.00
6293;DHT22;3179;54.350;10.102;2022-07-23T00:59:05;18.60;97.20
6293;DHT22;3179;54.350;10.102;2022-07-23T01:01:33;18.60;96.90
6293;DHT22;3179;54.350;10.102;2022-07-23T01:04:00;18.70;97.00
6293;DHT22;3179;54.350;10.102;2022-07-23T01:06:27;18.70;97.00
6293;DHT22;3179;54.350;10.102;2022-07-23T01:08:54;18.60;97.00
6293;DHT22;3179;54.350;10.102;2022-07-23T01:11:23;18.60;96.90
6293;DHT22;3179;54.350;10.102;2022-07-23T01:13:50;18.60;96.90
6293;DHT22;3179;54.350;10.102;2022-07-23T01:16:18;18.60;97.00
6293;DHT22;3179;54.350;10.102;2022-07-23T01:18:45;18.60;97.00
6293;DHT22;3179;54.350;10.102;2022-07-23T01:21:12;18.60;97.00
6293;DHT22;3179;54.350;10.102;2022-07-23T01:23:41;18.60;97.00
6293;DHT22;3179;54.350;10.102;2022-07-23T01:26:08;18.60;96.90
6293;DHT22;3179;54.350;10.102;2022-07-23T01:28:35;18.60;97.00
6293;DHT22;3179;54.350;10.102;2022-07-23T01:31:02;18.60;97.00
6293;DHT22;3179;54.350;10.102;2022-07-23T01:33:29;18.60;97.00
6293;DHT22;3179;54.350;10.102;2022-07-23T01:35:55;18.50;97.00
6293;DHT22;3179;54.350;10.102;2022-07-23T01:38:22;18.50;97.00
6293;DHT22;3179;54.350;10.102;2022-07-23T01:40:51;18.60;97.10
6293;DHT22;3179;54.350;10.102;2022-07-23T01:43:18;18.50;97.00
6293;DHT22;3179;54.350;10.102;2022-07-23T01:45:45;18.50;97.00
6293;DHT22;3179;54.350;10.102;2022-07-23T01:48:11;18.50;97.10
6293;DHT22;3179;54.350;10.102;2022-07-23T01:50:38;18.50;97.10
6293;DHT22;3179;54.350;10.102;2022-07-23T01:53:05;18.50;97.20
6293;DHT22;3179;54.350;10.102;2022-07-23T01:55:32;18.50;97.10
6293;DHT22;3179;54.350;10.102;2022-07-23T01:58:00;18.50;97.20
6293;DHT22;3179;54.350;10.102;2022-07-23T02:00:26;18.50;97.20
6293;DHT22;3179;54.350;10.102;2022-07-23T02:02:53;18.50;97.20
6293;DHT22;3179;54.350;10.102;2022-07-23T02:05:20;18.50;97.20
6293;DHT22;3179;54.350;10.102;2022-07-23T02:07:47;18.50;97.20
6293;DHT22;3179;54.350;10.102;2022-07-23T02:10:14;18.50;97.20
6293;DHT22;3179;54.350;10.102;2022-07-23T02:12:40;18.50;97.30
6293;DHT22;3179;54.350;10.102;2022-07-23T02:15:09;18.40;97.20
6293;DHT22;3179;54.350;10.102;2022-07-23T02:17:36;18.40;97.30
6293;DHT22;3179;54.350;10.102;2022-07-23T02:20:04;18.50;97.40
6293;DHT22;3179;54.350;10.102;2022-07-23T02:22:31;18.40;97.40
6293;DHT22;3179;54.350;10.102;2022-07-23T02:24:57;18.40;97.40
6293;DHT22;3179;54.350;10.102;2022-07-23T02:27:24;18.40;97.50
6293;DHT22;3179;54.350;10.102;2022-07-23T02:29:51;18.40;97.50
6293;DHT22;3179;54.350;10.102;2022-07-23T02:32:19;18.40;97.50
6293;DHT22;3179;54.350;10.102;2022-07-23T02:34:46;18.40;97.50
6293;DHT22;3179;54.350;10.102;2022-07-23T02:37:14;18.40;97.50
6293;DHT22;3179;54.350;10.102;2022-07-23T02:39:40;18.40;97.50
6293;DHT22;3179;54.350;10.102;2022-07-23T02:42:07;18.40;97.40
6293;DHT22;3179;54.350;10.102;2022-07-23T02:44:34;18.40;97.50
6293;DHT22;3179;54.350;10.102;2022-07-23T02:47:01;18.40;97.40
6293;DHT22;3179;54.350;10.102;2022-07-23T02:49:29;18.30;97.40
6293;DHT22;3179;54.350;10.102;2022-07-23T02:51:56;18.30;97.50
6293;DHT22;3179;54.350;10.102;2022-07-23T02:54:23;18.30;97.50
6293;DHT22;3179;54.350;10.102;2022-07-23T02:56:49;18.30;97.60
6293;DHT22;3179;54.350;10.102;2022-07-23T02:59:17;18.30;97.60
6293;DHT22;3179;54.350;10.102;2022-07-23T03:01:44;18.30;97.60
6293;DHT22;3179;54.350;10.102;2022-07-23T03:04:11;18.30;97.50
6293;DHT22;3179;54.350;10.102;2022-07-23T03:06:39;18.30;97.60
6293;DHT22;3179;54.350;10.102;2022-07-23T03:09:06;18.30;97.70
6293;DHT22;3179;54.350;10.102;2022-07-23T03:11:33;18.30;97.70
6293;DHT22;3179;54.350;10.102;2022-07-23T03:13:59;18.30;97.70
6293;DHT22;3179;54.350;10.102;2022-07-23T03:16:26;18.30;97.70
6293;DHT22;3179;54.350;10.102;2022-07-23T03:18:53;18.30;97.70
6293;DHT22;3179;54.350;10.102;2022-07-23T03:21:20;18.30;97.70
6293;DHT22;3179;54.350;10.102;2022-07-23T03:23:48;18.30;97.70
6293;DHT22;3179;54.350;10.102;2022-07-23T03:26:14;18.30;97.70
6293;DHT22;3179;54.350;10.102;2022-07-23T03:28:41;18.30;97.80
6293;DHT22;3179;54.350;10.102;2022-07-23T03:31:08;18.20;97.80
6293;DHT22;3179;54.350;10.102;2022-07-23T03:33:35;18.30;97.90
6293;DHT22;3179;54.350;10.102;2022-07-23T03:36:02;18.20;97.90
6293;DHT22;3179;54.350;10.102;2022-07-23T03:38:29;18.20;97.80
6293;DHT22;3179;54.350;10.102;2022-07-23T03:40:57;18.20;97.90
6293;DHT22;3179;54.350;10.102;2022-07-23T03:43:24;18.20;98.20
6293;DHT22;3179;54.350;10.102;2022-07-23T03:45:51;18.20;98.00
6293;DHT22;3179;54.350;10.102;2022-07-23T03:48:18;18.20;98.10
6293;DHT22;3179;54.350;10.102;2022-07-23T03:50:45;18.20;98.10
6293;DHT22;3179;54.350;10.102;2022-07-23T03:53:11;18.20;98.00
6293;DHT22;3179;54.350;10.102;2022-07-23T03:55:38;18.20;98.00
6293;DHT22;3179;54.350;10.102;2022-07-23T03:58:07;18.20;98.10
6293;DHT22;3179;54.350;10.102;2022-07-23T04:00:33;18.20;98.10
6293;DHT22;3179;54.350;10.102;2022-07-23T04:03:00;18.20;98.20
6293;DHT22;3179;54.350;10.102;2022-07-23T04:05:27;18.20;98.20
6293;DHT22;3179;54.350;10.102;2022-07-23T04:07:54;18.20;98.30
6293;DHT22;3179;54.350;10.102;2022-07-23T04:10:21;18.20;98.30
6293;DHT22;3179;54.350;10.102;2022-07-23T04:12:47;18.10;98.20
6293;DHT22;3179;54.350;10.102;2022-07-23T04:15:16;18.20;98.20
6293;DHT22;3179;54.350;10.102;2022-07-23T04:17:42;18.20;98.20
6293;DHT22;3179;54.350;10.102;2022-07-23T04:20:11;18.20;98.30
6293;DHT22;3179;54.350;10.102;2022-07-23T04:22:38;18.20;98.30
6293;DHT22;3179;54.350;10.102;2022-07-23T04:25:05;18.20;98.40
6293;DHT22;3179;54.350;10.102;2022-07-23T04:27:32;18.20;98.30
6293;DHT22;3179;54.350;10.102;2022-07-23T04:29:59;18.20;98.30
6293;DHT22;3179;54.350;10.102;2022-07-23T04:32:27;18.20;98.30
6293;DHT22;3179;54.350;10.102;2022-07-23T04:34:54;18.20;98.30
6293;DHT22;3179;54.350;10.102;2022-07-23T04:37:21;18.20;98.40
6293;DHT22;3179;54.350;10.102;2022-07-23T04:39:47;18.20;98.40
6293;DHT22;3179;54.350;10.102;2022-07-23T04:42:14;18.20;98.40
6293;DHT22;3179;54.350;10.102;2022-07-23T04:44:41;18.20;98.30
6293;DHT22;3179;54.350;10.102;2022-07-23T04:47:08;18.20;98.50
6293;DHT22;3179;54.350;10.102;2022-07-23T04:49:37;18.30;98.60
6293;DHT22;3179;54.350;10.102;2022-07-23T04:52:04;18.20;98.60
6293;DHT22;3179;54.350;10.102;2022-07-23T04:54:31;18.30;98.60
6293;DHT22;3179;54.350;10.102;2022-07-23T04:56:58;18.30;98.50
6293;DHT22;3179;54.350;10.102;2022-07-23T04:59:24;18.30;98.60
6293;DHT22;3179;54.350;10.102;2022-07-23T05:01:51;18.30;98.50
6293;DHT22;3179;54.350;10.102;2022-07-23T05:04:18;18.30;98.50
6293;DHT22;3179;54.350;10.102;2022-07-23T05:06:46;18.30;98.50
6293;DHT22;3179;54.350;10.102;2022-07-23T05:09:13;18.30;98.60
6293;DHT22;3179;54.350;10.102;2022-07-23T05:11:40;18.30;98.60
6293;DHT22;3179;54.350;10.102;2022-07-23T05:14:06;18.30;98.50
6293;DHT22;3179;54.350;10.102;2022-07-23T05:16:33;18.30;98.60
6293;DHT22;3179;54.350;10.102;2022-07-23T05:19:00;18.40;98.60
6293;DHT22;3179;54.350;10.102;2022-07-23T05:21:27;18.30;98.60
6293;DHT22;3179;54.350;10.102;2022-07-23T05:23:55;18.30;98.70
6293;DHT22;3179;54.350;10.102;2022-07-23T05:26:22;18.30;98.70
6293;DHT22;3179;54.350;10.102;2022-07-23T05:28:48;18.40;98.80
6293;DHT22;3179;54.350;10.102;2022-07-23T05:31:15;18.30;98.70
6293;DHT22;3179;54.350;10.102;2022-07-23T05:33:42;18.40;98.70
6293;DHT22;3179;54.350;10.102;2022-07-23T05:36:09;18.30;98.70
6293;DHT22;3179;54.350;10.102;2022-07-23T05:38:36;18.40;98.80
6293;DHT22;3179;54.350;10.102;2022-07-23T05:41:05;18.40;98.80
6293;DHT22;3179;54.350;10.102;2022-07-23T05:43:31;18.40;98.80
6293;DHT22;3179;54.350;10.102;2022-07-23T05:45:58;18.40;98.80
6293;DHT22;3179;54.350;10.102;2022-07-23T05:48:25;18.50;98.80
6293;DHT22;3179;54.350;10.102;2022-07-23T05:50:52;18.50;98.80
6293;DHT22;3179;54.350;10.102;2022-07-23T05:53:19;18.50;98.90
6293;DHT22;3179;54.350;10.102;2022-07-23T05:55:45;18.50;98.90
6293;DHT22;3179;54.350;10.102;2022-07-23T05:58:13;18.60;98.80
6293;DHT22;3179;54.350;10.102;2022-07-23T06:00:40;18.60;98.70
6293;DHT22;3179;54.350;10.102;2022-07-23T06:03:07;18.60;98.60
6293;DHT22;3179;54.350;10.102;2022-07-23T06:05:34;18.60;98.70
6293;DHT22;3179;54.350;10.102;2022-07-23T06:08:00;18.60;98.70
6293;DHT22;3179;54.350;10.102;2022-07-23T06:10:27;18.70;98.60
6293;DHT22;3179;54.350;10.102;2022-07-23T06:12:54;18.70;98.50
6293;DHT22;3179;54.350;10.102;2022-07-23T06:15:22;18.70;98.50
6293;DHT22;3179;54.350;10.102;2022-07-23T06:17:49;18.70;98.50
6293;DHT22;3179;54.350;10.102;2022-07-23T06:20:16;18.70;98.50
6293;DHT22;3179;54.350;10.102;2022-07-23T06:22:43;18.70;98.50
6293;DHT22;3179;54.350;10.102;2022-07-23T06:25:10;18.70;98.50
6293;DHT22;3179;54.350;10.102;2022-07-23T06:27:37;18.60;98.50
6293;DHT22;3179;54.350;10.102;2022-07-23T06:30:04;18.70;98.70
6293;DHT22;3179;54.350;10.102;2022-07-23T06:32:35;18.70;98.60
6293;DHT22;3179;54.350;10.102;2022-07-23T06:35:02;18.70;98.50
6293;DHT22;3179;54.350;10.102;2022-07-23T06:37:28;18.70;98.50
6293;DHT22;3179;54.350;10.102;2022-07-23T06:39:55;18.70;98.40
6293;DHT22;3179;54.350;10.102;2022-07-23T06:42:22;18.70;98.50
6293;DHT22;3179;54.350;10.102;2022-07-23T06:44:49;18.70;98.50
6293;DHT22;3179;54.350;10.102;2022-07-23T06:47:16;18.70;98.50
6293;DHT22;3179;54.350;10.102;2022-07-23T06:49:44;18.70;98.50
6293;DHT22;3179;54.350;10.102;2022-07-23T06:52:11;18.60;98.30
6293;DHT22;3179;54.350;10.102;2022-07-23T06:54:38;18.70;98.40
6293;DHT22;3179;54.350;10.102;2022-07-23T06:57:05;18.60;98.30
6293;DHT22;3179;54.350;10.102;2022-07-23T06:59:32;18.60;98.40
6293;DHT22;3179;54.350;10.102;2022-07-23T07:02:02;18.60;98.40
6293;DHT22;3179;54.350;10.102;2022-07-23T07:04:32;18.60;98.40
6293;DHT22;3179;54.350;10.102;2022-07-23T07:07:00;18.60;98.30
6293;DHT22;3179;54.350;10.102;2022-07-23T07:09:27;18.60;98.30
6293;DHT22;3179;54.350;10.102;2022-07-23T07:11:54;18.60;98.20
6293;DHT22;3179;54.350;10.102;2022-07-23T07:14:20;18.60;98.20
6293;DHT22;3179;54.350;10.102;2022-07-23T07:16:47;18.60;98.10
6293;DHT22;3179;54.350;10.102;2022-07-23T07:19:14;18.60;98.10
6293;DHT22;3179;54.350;10.102;2022-07-23T07:21:42;18.50;98.10
6293;DHT22;3179;54.350;10.102;2022-07-23T07:24:10;18.60;98.10
6293;DHT22;3179;54.350;10.102;2022-07-23T07:26:37;18.60;98.10
6293;DHT22;3179;54.350;10.102;2022-07-23T07:29:04;18.60;98.00
6293;DHT22;3179;54.350;10.102;2022-07-23T07:31:31;18.60;98.00
6293;DHT22;3179;54.350;10.102;2022-07-23T07:34:01;18.50;97.80
6293;DHT22;3179;54.350;10.102;2022-07-23T07:36:28;18.50;97.90
6293;DHT22;3179;54.350;10.102;2022-07-23T07:38:58;18.50;98.00
6293;DHT22;3179;54.350;10.102;2022-07-23T07:41:26;18.50;98.10
6293;DHT22;3179;54.350;10.102;2022-07-23T07:43:53;18.50;98.00
6293;DHT22;3179;54.350;10.102;2022-07-23T07:46:20;18.50;98.10
6293;DHT22;3179;54.350;10.102;2022-07-23T07:48:49;18.50;98.10
6293;DHT22;3179;54.350;10.102;2022-07-23T07:51:16;18.50;98.10
6293;DHT22;3179;54.350;10.102;2022-07-23T07:53:43;18.50;98.10
6293;DHT22;3179;54.350;10.102;2022-07-23T07:56:10;18.50;98.10
6293;DHT22;3179;54.350;10.102;2022-07-23T07:58:41;18.50;98.20
6293;DHT22;3179;54.350;10.102;2022-07-23T08:01:08;18.50;98.20
6293;DHT22;3179;54.350;10.102;2022-07-23T08:03:34;18.50;98.20
6293;DHT22;3179;54.350;10.102;2022-07-23T08:06:01;18.50;98.30
6293;DHT22;3179;54.350;10.102;2022-07-23T08:08:28;18.50;98.10
6293;DHT22;3179;54.350;10.102;2022-07-23T08:10:55;18.60;98.00
6293;DHT22;3179;54.350;10.102;2022-07-23T08:13:21;18.60;97.90
6293;DHT22;3179;54.350;10.102;2022-07-23T08:15:50;18.60;97.90
6293;DHT22;3179;54.350;10.102;2022-07-23T08:18:18;18.70;97.90
6293;DHT22;3179;54.350;10.102;2022-07-23T08:20:45;18.70;97.90
6293;DHT22;3179;54.350;10.102;2022-07-23T08:23:12;18.80;97.90
6293;DHT22;3179;54.350;10.102;2022-07-23T08:25:40;18.80;97.80
6293;DHT22;3179;54.350;10.102;2022-07-23T08:28:09;18.90;97.80
6293;DHT22;3179;54.350;10.102;2022-07-23T08:30:37;18.90;97.70
6293;DHT22;3179;54.350;10.102;2022-07-23T08:33:07;18.90;97.70
6293;DHT22;3179;54.350;10.102;2022-07-23T08:35:38;18.90;97.60
6293;DHT22;3179;54.350;10.102;2022-07-23T08:38:09;19.00;97.70
6293;DHT22;3179;54.350;10.102;2022-07-23T08:40:37;19.00;98.00
6293;DHT22;3179;54.350;10.102;2022-07-23T08:43:08;19.00;97.80
6293;DHT22;3179;54.350;10.102;2022-07-23T08:45:37;19.00;98.30
6293;DHT22;3179;54.350;10.102;2022-07-23T08:48:08;19.00;98.00
6293;DHT22;3179;54.350;10.102;2022-07-23T08:50:35;19.10;98.00
6293;DHT22;3179;54.350;10.102;2022-07-23T08:53:06;19.10;97.90
6293;DHT22;3179;54.350;10.102;2022-07-23T08:55:33;19.20;97.50
6293;DHT22;3179;54.350;10.102;2022-07-23T08:58:00;19.20;97.30
6293;DHT22;3179;54.350;10.102;2022-07-23T09:00:27;19.20;97.20
6293;DHT22;3179;54.350;10.102;2022-07-23T09:02:54;19.30;97.10
6293;DHT22;3179;54.350;10.102;2022-07-23T09:05:23;19.30;97.00
6293;DHT22;3179;54.350;10.102;2022-07-23T09:08:07;19.30;96.90
6293;DHT22;3179;54.350;10.102;2022-07-23T09:10:46;19.40;96.00
6293;DHT22;3179;54.350;10.102;2022-07-23T09:13:31;19.40;96.50
6293;DHT22;3179;54.350;10.102;2022-07-23T09:16:00;19.40;96.30
6293;DHT22;3179;54.350;10.102;2022-07-23T09:18:32;19.40;96.70
6293;DHT22;3179;54.350;10.102;2022-07-23T09:21:23;19.40;96.60
6293;DHT22;3179;54.350;10.102;2022-07-23T09:23:53;19.40;96.10
6293;DHT22;3179;54.350;10.102;2022-07-23T09:26:29;19.40;96.70
6293;DHT22;3179;54.350;10.102;2022-07-23T09:28:59;19.50;96.50
6293;DHT22;3179;54.350;10.102;2022-07-23T09:31:31;19.40;96.60
6293;DHT22;3179;54.350;10.102;2022-07-23T09:34:15;19.40;96.60
6293;DHT22;3179;54.350;10.102;2022-07-23T09:36:43;19.40;96.30
6293;DHT22;3179;54.350;10.102;2022-07-23T09:39:12;19.40;96.50
6293;DHT22;3179;54.350;10.102;2022-07-23T09:41:41;19.50;96.50
6293;DHT22;3179;54.350;10.102;2022-07-23T09:44:10;19.50;96.60
6293;DHT22;3179;54.350;10.102;2022-07-23T09:46:38;19.50;96.50
6293;DHT22;3179;54.350;10.102;2022-07-23T09:49:27;19.50;96.50
6293;DHT22;3179;54.350;10.102;2022-07-23T09:51:57;19.60;96.30
6293;DHT22;3179;54.350;10.102;2022-07-23T09:54:32;19.60;96.50
6293;DHT22;3179;54.350;10.102;2022-07-23T09:57:02;19.60;96.40
6293;DHT22;3179;54.350;10.102;2022-07-23T09:59:31;19.70;96.50
6293;DHT22;3179;54.350;10.102;2022-07-23T10:01:59;19.70;96.60
6293;DHT22;3179;54.350;10.102;2022-07-23T10:04:27;19.80;96.60
6293;DHT22;3179;54.350;10.102;2022-07-23T10:06:56;19.90;96.60
6293;DHT22;3179;54.350;10.102;2022-07-23T10:09:26;19.90;96.50
6293;DHT22;3179;54.350;10.102;2022-07-23T10:11:56;20.00;96.50
6293;DHT22;3179;54.350;10.102;2022-07-23T10:14:41;20.00;96.30
6293;DHT22;3179;54.350;10.102;2022-07-23T10:17:08;19.90;96.30
6293;DHT22;3179;54.350;10.102;2022-07-23T10:19:38;20.00;96.50
6293;DHT22;3179;54.350;10.102;2022-07-23T10:22:13;20.00;96.30
6293;DHT22;3179;54.350;10.102;2022-07-23T10:24:47;20.10;96.20
6293;DHT22;3179;54.350;10.102;2022-07-23T10:30:20;20.20;95.70
6293;DHT22;3179;54.350;10.102;2022-07-23T10:32:56;20.20;96.00
6293;DHT22;3179;54.350;10.102;2022-07-23T10:35:29;20.20;96.00
6293;DHT22;3179;54.350;10.102;2022-07-23T10:38:06;20.20;96.20
6293;DHT22;3179;54.350;10.102;2022-07-23T10:40:34;20.10;96.00
6293;DHT22;3179;54.350;10.102;2022-07-23T10:43:01;20.00;96.00
6293;DHT22;3179;54.350;10.102;2022-07-23T10:45:30;20.00;95.90
6293;DHT22;3179;54.350;10.102;2022-07-23T10:48:13;19.90;95.60
6293;DHT22;3179;54.350;10.102;2022-07-23T10:50:41;19.90;95.30
6293;DHT22;3179;54.350;10.102;2022-07-23T10:53:12;19.80;95.60
6293;DHT22;3179;54.350;10.102;2022-07-23T10:55:44;19.80;95.60
6293;DHT22;3179;54.350;10.102;2022-07-23T10:58:12;19.70;95.60
6293;DHT22;3179;54.350;10.102;2022-07-23T11:00:43;19.70;95.60
6293;DHT22;3179;54.350;10.102;2022-07-23T11:03:29;19.60;95.50
6293;DHT22;3179;54.350;10.102;2022-07-23T11:05:59;19.60;95.30
6293;DHT22;3179;54.350;10.102;2022-07-23T11:08:27;19.50;95.60
6293;DHT22;3179;54.350;10.102;2022-07-23T11:10:56;19.60;95.50
6293;DHT22;3179;54.350;10.102;2022-07-23T11:13:45;19.50;95.50
6293;DHT22;3179;54.350;10.102;2022-07-23T11:16:16;19.50;95.30
6293;DHT22;3179;54.350;10.102;2022-07-23T11:21:47;19.60;95.50
6293;DHT22;3179;54.350;10.102;2022-07-23T11:24:18;19.60;95.70
6293;DHT22;3179;54.350;10.102;2022-07-23T11:26:59;19.60;95.70
6293;DHT22;3179;54.350;10.102;2022-07-23T11:29:46;19.70;95.80
6293;DHT22;3179;54.350;10.102;2022-07-23T11:32:39;19.80;95.70
6293;DHT22;3179;54.350;10.102;2022-07-23T11:35:22;19.90;95.80
6293;DHT22;3179;54.350;10.102;2022-07-23T11:37:50;19.90;95.70
6293;DHT22;3179;54.350;10.102;2022-07-23T11:40:22;20.00;95.70
6293;DHT22;3179;54.350;10.102;2022-07-23T11:42:57;20.00;95.70
6293;DHT22;3179;54.350;10.102;2022-07-23T11:45:29;20.00;95.50
6293;DHT22;3179;54.350;10.102;2022-07-23T11:47:57;20.00;95.60
6293;DHT22;3179;54.350;10.102;2022-07-23T11:50:24;20.00;95.60
6293;DHT22;3179;54.350;10.102;2022-07-23T11:52:52;20.10;95.70
6293;DHT22;3179;54.350;10.102;2022-07-23T11:55:21;20.10;95.60
6293;DHT22;3179;54.350;10.102;2022-07-23T11:57:48;20.10;95.70
6293;DHT22;3179;54.350;10.102;2022-07-23T12:00:19;20.00;95.60
6293;DHT22;3179;54.350;10.102;2022-07-23T12:02:49;20.00;95.70
6293;DHT22;3179;54.350;10.102;2022-07-23T12:05:17;20.10;95.90
6293;DHT22;3179;54.350;10.102;2022-07-23T12:07:46;20.10;95.90
6293;DHT22;3179;54.350;10.102;2022-07-23T12:10:16;20.20;96.00
6293;DHT22;3179;54.350;10.102;2022-07-23T12:12:47;20.40;96.00
6293;DHT22;3179;54.350;10.102;2022-07-23T12:15:16;20.50;95.70
6293;DHT22;3179;54.350;10.102;2022-07-23T12:17:47;20.50;95.60
6293;DHT22;3179;54.350;10.102;2022-07-23T12:20:15;20.60;95.70
6293;DHT22;3179;54.350;10.102;2022-07-23T12:22:45;20.60;95.70
6293;DHT22;3179;54.350;10.102;2022-07-23T12:25:17;20.50;95.70
6293;DHT22;3179;54.350;10.102;2022-07-23T12:27:56;20.50;95.50
6293;DHT22;3179;54.350;10.102;2022-07-23T12:30:25;20.30;95.30
6293;DHT22;3179;54.350;10.102;2022-07-23T12:32:53;20.30;95.30
6293;DHT22;3179;54.350;10.102;2022-07-23T12:35:23;20.20;95.30
6293;DHT22;3179;54.350;10.102;2022-07-23T12:37:51;20.10;95.30
6293;DHT22;3179;54.350;10.102;2022-07-23T12:40:25;20.00;95.20
6293;DHT22;3179;54.350;10.102;2022-07-23T12:42:56;19.90;95.10
6293;DHT22;3179;54.350;10.102;2022-07-23T12:45:24;19.90;95.20
6293;DHT22;3179;54.350;10.102;2022-07-23T12:47:58;19.90;95.10
6293;DHT22;3179;54.350;10.102;2022-07-23T12:50:37;19.90;95.00
6293;DHT22;3179;54.350;10.102;2022-07-23T12:53:06;19.80;95.00
6293;DHT22;3179;54.350;10.102;2022-07-23T12:55:37;19.80;95.20
6293;DHT22;3179;54.350;10.102;2022-07-23T12:58:10;19.80;95.40
6293;DHT22;3179;54.350;10.102;2022-07-23T13:01:08;19.80;95.40
6293;DHT22;3179;54.350;10.102;2022-07-23T13:03:37;19.80;95.40
6293;DHT22;3179;54.350;10.102;2022-07-23T13:06:06;19.80;95.50
6293;DHT22;3179;54.350;10.102;2022-07-23T13:08:36;19.90;95.60
6293;DHT22;3179;54.350;10.102;2022-07-23T13:11:04;20.10;95.70
6293;DHT22;3179;54.350;10.102;2022-07-23T13:13:34;20.20;95.60
6293;DHT22;3179;54.350;10.102;2022-07-23T13:16:02;20.40;95.60
6293;DHT22;3179;54.350;10.102;2022-07-23T13:18:29;20.40;95.50
6293;DHT22;3179;54.350;10.102;2022-07-23T13:20:56;20.40;95.40
6293;DHT22;3179;54.350;10.102;2022-07-23T13:23:23;20.40;95.30
6293;DHT22;3179;54.350;10.102;2022-07-23T13:25:51;20.40;95.20
6293;DHT22;3179;54.350;10.102;2022-07-23T13:28:22;20.40;95.20
6293;DHT22;3179;54.350;10.102;2022-07-23T13:30:51;20.40;95.20
6293;DHT22;3179;54.350;10.102;2022-07-23T13:33:20;20.30;95.00
6293;DHT22;3179;54.350;10.102;2022-07-23T13:35:49;20.20;95.10
6293;DHT22;3179;54.350;10.102;2022-07-23T13:38:17;20.20;95.10
6293;DHT22;3179;54.350;10.102;2022-07-23T13:40:46;20.20;95.10
6293;DHT22;3179;54.350;10.102;2022-07-23T13:43:15;20.10;94.80
6293;DHT22;3179;54.350;10.102;2022-07-23T13:45:43;20.20;94.90
6293;DHT22;3179;54.350;10.102;2022-07-23T13:48:11;20.20;95.00
6293;DHT22;3179;54.350;10.102;2022-07-23T13:50:40;20.20;95.10
6293;DHT22;3179;54.350;10.102;2022-07-23T13:53:09;20.20;95.10
6293;DHT22;3179;54.350;10.102;2022-07-23T13:55:36;20.30;95.00
6293;DHT22;3179;54.350;10.102;2022-07-23T13:58:05;20.30;95.00
6293;DHT22;3179;54.350;10.102;2022-07-23T14:00:36;20.30;95.10
6293;DHT22;3179;54.350;10.102;2022-07-23T14:03:03;20.30;95.30
6293;DHT22;3179;54.350;10.102;2022-07-23T14:05:32;20.20;95.00
6293;DHT22;3179;54.350;10.102;2022-07-23T14:07:59;20.20;95.00
6293;DHT22;3179;54.350;10.102;2022-07-23T14:10:26;20.20;94.90
6293;DHT22;3179;54.350;10.102;2022-07-23T14:12:53;20.20;94.90
6293;DHT22;3179;54.350;10.102;2022-07-23T14:15:22;20.20;94.90
6293;DHT22;3179;54.350;10.102;2022-07-23T14:17:50;20.20;94.90
6293;DHT22;3179;54.350;10.102;2022-07-23T14:20:16;20.20;95.00
6293;DHT22;3179;54.350;10.102;2022-07-23T14:22:45;20.20;94.90
6293;DHT22;3179;54.350;10.102;2022-07-23T14:25:12;20.20;94.80
6293;DHT22;3179;54.350;10.102;2022-07-23T14:27:39;20.30;94.80
6293;DHT22;3179;54.350;10.102;2022-07-23T14:30:08;20.30;94.80
6293;DHT22;3179;54.350;10.102;2022-07-23T14:32:35;20.30;94.80
6293;DHT22;3179;54.350;10.102;2022-07-23T14:35:03;20.30;94.80
6293;DHT22;3179;54.350;10.102;2022-07-23T14:37:30;20.30;94.80
6293;DHT22;3179;54.350;10.102;2022-07-23T14:39:58;20.30;94.70
6293;DHT22;3179;54.350;10.102;2022-07-23T14:42:26;20.30;94.70
6293;DHT22;3179;54.350;10.102;2022-07-23T14:44:52;20.30;94.70
6293;DHT22;3179;54.350;10.102;2022-07-23T14:47:19;20.30;94.70
6293;DHT22;3179;54.350;10.102;2022-07-23T14:49:46;20.20;94.50
6293;DHT22;3179;54.350;10.102;2022-07-23T14:52:13;20.20;94.50
6293;DHT22;3179;54.350;10.102;2022-07-23T14:54:41;20.20;94.60
6293;DHT22;3179;54.350;10.102;2022-07-23T14:57:09;20.20;94.70
6293;DHT22;3179;54.350;10.102;2022-07-23T14:59:36;20.20;94.60
6293;DHT22;3179;54.350;10.102;2022-07-23T15:02:04;20.30;94.60
6293;DHT22;3179;54.350;10.102;2022-07-23T15:04:32;20.40;94.60
6293;DHT22;3179;54.350;10.102;2022-07-23T15:06:59;20.60;94.80
6293;DHT22;3179;54.350;10.102;2022-07-23T15:09:26;20.70;94.70
6293;DHT22;3179;54.350;10.102;2022-07-23T15:11:52;20.70;94.40
6293;DHT22;3179;54.350;10.102;2022-07-23T15:14:21;20.70;94.30
6293;DHT22;3179;54.350;10.102;2022-07-23T15:16:48;20.70;94.20
6293;DHT22;3179;54.350;10.102;2022-07-23T15:19:14;20.70;94.30
6293;DHT22;3179;54.350;10.102;2022-07-23T15:21:44;20.60;94.30
6293;DHT22;3179;54.350;10.102;2022-07-23T15:24:13;20.60;94.20
6293;DHT22;3179;54.350;10.102;2022-07-23T15:26:40;20.50;94.20
6293;DHT22;3179;54.350;10.102;2022-07-23T15:29:07;20.60;94.40
6293;DHT22;3179;54.350;10.102;2022-07-23T15:31:35;20.60;94.30
6293;DHT22;3179;54.350;10.102;2022-07-23T15:34:03;20.60;94.20
6293;DHT22;3179;54.350;10.102;2022-07-23T15:36:29;20.60;94.20
6293;DHT22;3179;54.350;10.102;2022-07-23T15:38:56;20.60;94.10
6293;DHT22;3179;54.350;10.102;2022-07-23T15:41:23;20.60;93.90
6293;DHT22;3179;54.350;10.102;2022-07-23T15:43:50;20.50;93.80
6293;DHT22;3179;54.350;10.102;2022-07-23T15:46:17;20.50;93.70
6293;DHT22;3179;54.350;10.102;2022-07-23T15:48:46;20.50;93.60
6293;DHT22;3179;54.350;10.102;2022-07-23T15:51:13;20.50;93.60
6293;DHT22;3179;54.350;10.102;2022-07-23T15:53:41;20.50;93.30
6293;DHT22;3179;54.350;10.102;2022-07-23T15:56:09;20.50;93.10
6293;DHT22;3179;54.350;10.102;2022-07-23T15:58:36;20.50;92.80